Stony Plain, Canada
Current Conditions -  °F | °C
As of 2:00 PM on Friday 31 Oct 2014 (Local Time) from CWSE Reporting Station
Overcast Overcast  
Wind Chill: 32°   Ceiling: 1200
Heat Index: 38°   Visibility: 10mi
Dew Point: 36°   Wind: 9mph
Humidity: 93%   Direction: 310°NW
Pressure: 29.61"   Gusts: NA
Location:  53.53°N, 114.01°W
Report Text: CWSE 312000Z 31008KT 10SM OVC012 03/02 A2961 RMK SLP050 T00340024 WSI/SWOB
Loading
Personal Weather Stations






























Interactive Weather Map
Tropical Storm Tracking
New forecast layout! Learn more

10-Day Weather Forecast

Advertisements
Track Severe Weather on mobile